sensor_id;sensor_type;location;lat;lon;timestamp;pressure;altitude;pressure_sealevel;temperature;humidity
80629;BME280;69983;42.370;-71.210;2023-09-12T00:01:23;101517.91;;;24.51;24.51
80629;BME280;69983;42.370;-71.210;2023-09-12T00:03:24;101517.57;;;24.65;24.31
80629;BME280;69983;42.370;-71.210;2023-09-12T00:05:24;101519.39;;;25.08;24.30
80629;BME280;69983;42.370;-71.210;2023-09-12T00:07:25;101522.42;;;25.20;24.36
80629;BME280;69983;42.370;-71.210;2023-09-12T00:09:25;101526.07;;;25.16;24.34
80629;BME280;69983;42.370;-71.210;2023-09-12T00:11:26;101527.79;;;25.28;24.33
80629;BME280;69983;42.370;-71.210;2023-09-12T00:13:27;101527.26;;;25.23;23.94
80629;BME280;69983;42.370;-71.210;2023-09-12T00:15:27;101519.79;;;25.94;23.81
80629;BME280;69983;42.370;-71.210;2023-09-12T00:17:28;101520.87;;;25.70;24.08
80629;BME280;69983;42.370;-71.210;2023-09-12T00:19:28;101518.14;;;25.91;24.18
80629;BME280;69983;42.370;-71.210;2023-09-12T00:21:29;101520.64;;;25.65;24.28
80629;BME280;69983;42.370;-71.210;2023-09-12T00:23:31;101523.39;;;25.87;24.38
80629;BME280;69983;42.370;-71.210;2023-09-12T00:25:30;101519.73;;;25.28;25.04
80629;BME280;69983;42.370;-71.210;2023-09-12T00:27:31;101519.24;;;24.86;24.83
80629;BME280;69983;42.370;-71.210;2023-09-12T00:29:31;101516.92;;;24.80;24.62
80629;BME280;69983;42.370;-71.210;2023-09-12T00:31:32;101515.38;;;24.96;24.31
80629;BME280;69983;42.370;-71.210;2023-09-12T00:33:32;101514.97;;;25.02;24.28
80629;BME280;69983;42.370;-71.210;2023-09-12T00:35:32;101513.34;;;25.21;24.24
80629;BME280;69983;42.370;-71.210;2023-09-12T00:37:33;101513.79;;;25.39;24.21
80629;BME280;69983;42.370;-71.210;2023-09-12T00:39:33;101510.51;;;25.48;24.24
80629;BME280;69983;42.370;-71.210;2023-09-12T00:41:34;101512.41;;;25.67;24.22
80629;BME280;69983;42.370;-71.210;2023-09-12T00:43:34;101511.82;;;25.79;24.20
80629;BME280;69983;42.370;-71.210;2023-09-12T00:45:34;101509.13;;;25.95;24.20
80629;BME280;69983;42.370;-71.210;2023-09-12T00:47:35;101504.71;;;25.73;24.25
80629;BME280;69983;42.370;-71.210;2023-09-12T00:49:36;101503.81;;;25.87;24.26
80629;BME280;69983;42.370;-71.210;2023-09-12T00:51:36;101505.83;;;25.39;24.50
80629;BME280;69983;42.370;-71.210;2023-09-12T00:53:36;101503.68;;;25.04;24.45
80629;BME280;69983;42.370;-71.210;2023-09-12T00:55:38;101505.02;;;24.45;24.77
80629;BME280;69983;42.370;-71.210;2023-09-12T00:57:37;101503.66;;;25.16;24.49
80629;BME280;69983;42.370;-71.210;2023-09-12T00:59:37;101501.22;;;25.34;24.27
80629;BME280;69983;42.370;-71.210;2023-09-12T01:01:37;101499.58;;;25.64;24.13
80629;BME280;69983;42.370;-71.210;2023-09-12T01:03:39;101494.14;;;25.82;24.06
80629;BME280;69983;42.370;-71.210;2023-09-12T01:05:39;101489.58;;;25.89;24.17
80629;BME280;69983;42.370;-71.210;2023-09-12T01:07:39;101491.02;;;26.03;24.12
80629;BME280;69983;42.370;-71.210;2023-09-12T01:09:40;101487.03;;;25.89;24.23
80629;BME280;69983;42.370;-71.210;2023-09-12T01:11:39;101487.75;;;25.65;24.17
80629;BME280;69983;42.370;-71.210;2023-09-12T01:13:40;101490.15;;;25.34;24.16
80629;BME280;69983;42.370;-71.210;2023-09-12T01:15:41;101488.73;;;24.99;24.25
80629;BME280;69983;42.370;-71.210;2023-09-12T01:17:43;101490.19;;;25.04;24.09
80629;BME280;69983;42.370;-71.210;2023-09-12T01:19:42;101488.91;;;25.36;24.15
80629;BME280;69983;42.370;-71.210;2023-09-12T01:22:08;101483.35;;;25.52;24.16
80629;BME280;69983;42.370;-71.210;2023-09-12T01:23:54;101477.22;;;25.67;24.12
80629;BME280;69983;42.370;-71.210;2023-09-12T01:26:12;101463.79;;;25.83;24.10
80629;BME280;69983;42.370;-71.210;2023-09-12T01:27:48;101454.90;;;26.00;24.12
80629;BME280;69983;42.370;-71.210;2023-09-12T01:29:46;101453.38;;;25.75;24.20
80629;BME280;69983;42.370;-71.210;2023-09-12T01:31:48;101455.19;;;25.89;24.15
80629;BME280;69983;42.370;-71.210;2023-09-12T01:33:46;101455.27;;;25.86;24.28
80629;BME280;69983;42.370;-71.210;2023-09-12T01:35:47;101453.68;;;25.96;24.29
80629;BME280;69983;42.370;-71.210;2023-09-12T01:37:47;101451.60;;;26.03;24.27
80629;BME280;69983;42.370;-71.210;2023-09-12T01:39:47;101448.40;;;26.13;24.23
80629;BME280;69983;42.370;-71.210;2023-09-12T01:41:48;101452.57;;;26.05;24.32
80629;BME280;69983;42.370;-71.210;2023-09-12T01:43:50;101453.67;;;25.84;24.46
80629;BME280;69983;42.370;-71.210;2023-09-12T01:45:52;101455.39;;;25.40;24.18
80629;BME280;69983;42.370;-71.210;2023-09-12T01:47:50;101454.67;;;24.60;24.53
80629;BME280;69983;42.370;-71.210;2023-09-12T01:49:53;101455.65;;;24.83;24.36
80629;BME280;69983;42.370;-71.210;2023-09-12T01:51:51;101454.97;;;25.21;24.47
80629;BME280;69983;42.370;-71.210;2023-09-12T01:53:51;101454.63;;;25.20;24.49
80629;BME280;69983;42.370;-71.210;2023-09-12T01:55:51;101452.77;;;25.38;24.28
80629;BME280;69983;42.370;-71.210;2023-09-12T01:57:52;101452.75;;;25.48;24.32
80629;BME280;69983;42.370;-71.210;2023-09-12T01:59:52;101458.09;;;25.95;24.23
80629;BME280;69983;42.370;-71.210;2023-09-12T02:01:52;101463.78;;;25.67;24.35
80629;BME280;69983;42.370;-71.210;2023-09-12T02:03:53;101465.80;;;25.78;24.32
80629;BME280;69983;42.370;-71.210;2023-09-12T02:05:53;101465.84;;;26.14;24.31
80629;BME280;69983;42.370;-71.210;2023-09-12T02:07:53;101463.03;;;26.09;24.49
80629;BME280;69983;42.370;-71.210;2023-09-12T02:09:53;101461.83;;;25.69;24.46
80629;BME280;69983;42.370;-71.210;2023-09-12T02:11:53;101461.43;;;26.12;24.32
80629;BME280;69983;42.370;-71.210;2023-09-12T02:13:54;101461.92;;;26.33;24.43
80629;BME280;69983;42.370;-71.210;2023-09-12T02:15:59;101462.46;;;26.10;24.38
80629;BME280;69983;42.370;-71.210;2023-09-12T02:17:54;101457.84;;;25.94;24.51
80629;BME280;69983;42.370;-71.210;2023-09-12T02:19:55;101460.17;;;25.77;24.27
80629;BME280;69983;42.370;-71.210;2023-09-12T02:21:55;101468.71;;;24.81;24.66
80629;BME280;69983;42.370;-71.210;2023-09-12T02:23:56;101468.95;;;24.41;24.66
80629;BME280;69983;42.370;-71.210;2023-09-12T02:25:57;101470.50;;;24.56;24.72
80629;BME280;69983;42.370;-71.210;2023-09-12T02:27:57;101473.93;;;25.36;24.47
80629;BME280;69983;42.370;-71.210;2023-09-12T02:29:58;101473.97;;;25.29;24.41
80629;BME280;69983;42.370;-71.210;2023-09-12T02:31:58;101474.13;;;25.35;24.41
80629;BME280;69983;42.370;-71.210;2023-09-12T02:33:59;101475.05;;;24.55;24.48
80629;BME280;69983;42.370;-71.210;2023-09-12T02:36:00;101473.36;;;24.15;24.84
80629;BME280;69983;42.370;-71.210;2023-09-12T02:38:00;101470.78;;;24.15;24.50
80629;BME280;69983;42.370;-71.210;2023-09-12T02:40:01;101465.12;;;24.33;24.83
80629;BME280;69983;42.370;-71.210;2023-09-12T02:42:01;101464.10;;;24.61;24.45
80629;BME280;69983;42.370;-71.210;2023-09-12T02:44:01;101464.03;;;25.15;24.16
80629;BME280;69983;42.370;-71.210;2023-09-12T02:46:02;101466.27;;;25.27;24.19
80629;BME280;69983;42.370;-71.210;2023-09-12T02:48:02;101463.54;;;25.38;24.40
80629;BME280;69983;42.370;-71.210;2023-09-12T02:50:02;101460.64;;;25.08;24.06
80629;BME280;69983;42.370;-71.210;2023-09-12T02:52:03;101459.96;;;24.84;23.98
80629;BME280;69983;42.370;-71.210;2023-09-12T02:54:03;101459.65;;;24.76;23.99
80629;BME280;69983;42.370;-71.210;2023-09-12T02:56:04;101450.25;;;24.21;24.37
80629;BME280;69983;42.370;-71.210;2023-09-12T02:58:04;101447.36;;;24.75;24.20
80629;BME280;69983;42.370;-71.210;2023-09-12T03:00:07;101447.46;;;25.31;23.85
80629;BME280;69983;42.370;-71.210;2023-09-12T03:02:05;101446.63;;;25.21;23.81
80629;BME280;69983;42.370;-71.210;2023-09-12T03:04:05;101444.49;;;25.34;23.78
80629;BME280;69983;42.370;-71.210;2023-09-12T03:06:06;101445.96;;;25.26;23.97
80629;BME280;69983;42.370;-71.210;2023-09-12T03:08:06;101441.69;;;24.59;24.13
80629;BME280;69983;42.370;-71.210;2023-09-12T03:10:07;101437.59;;;24.74;23.86
80629;BME280;69983;42.370;-71.210;2023-09-12T03:12:07;101432.25;;;24.54;23.81
80629;BME280;69983;42.370;-71.210;2023-09-12T03:14:07;101428.64;;;24.58;24.24
80629;BME280;69983;42.370;-71.210;2023-09-12T03:16:10;101427.37;;;24.69;24.00
80629;BME280;69983;42.370;-71.210;2023-09-12T03:18:10;101425.50;;;24.93;23.94
80629;BME280;69983;42.370;-71.210;2023-09-12T03:20:10;101423.70;;;25.13;23.89
80629;BME280;69983;42.370;-71.210;2023-09-12T03:22:09;101422.18;;;25.36;23.86
80629;BME280;69983;42.370;-71.210;2023-09-12T03:24:10;101420.23;;;25.23;24.00
80629;BME280;69983;42.370;-71.210;2023-09-12T03:26:11;101419.79;;;24.67;23.93
80629;BME280;69983;42.370;-71.210;2023-09-12T03:28:11;101417.65;;;24.91;23.68
80629;BME280;69983;42.370;-71.210;2023-09-12T03:30:12;101414.94;;;24.52;23.80
80629;BME280;69983;42.370;-71.210;2023-09-12T03:32:12;101411.99;;;24.69;24.28
80629;BME280;69983;42.370;-71.210;2023-09-12T03:34:12;101410.79;;;24.83;23.98
80629;BME280;69983;42.370;-71.210;2023-09-12T03:36:13;101407.81;;;24.95;23.80
80629;BME280;69983;42.370;-71.210;2023-09-12T03:38:13;101402.92;;;25.08;23.76
80629;BME280;69983;42.370;-71.210;2023-09-12T03:40:14;101397.95;;;25.19;23.74
80629;BME280;69983;42.370;-71.210;2023-09-12T03:42:14;101400.85;;;25.63;23.82
80629;BME280;69983;42.370;-71.210;2023-09-12T03:44:15;101395.67;;;25.11;23.62
80629;BME280;69983;42.370;-71.210;2023-09-12T03:46:16;101396.48;;;24.60;23.73
80629;BME280;69983;42.370;-71.210;2023-09-12T03:48:16;101393.06;;;23.85;24.41
80629;BME280;69983;42.370;-71.210;2023-09-12T03:50:16;101394.19;;;23.54;24.30
80629;BME280;69983;42.370;-71.210;2023-09-12T03:52:17;101391.14;;;23.97;24.15
80629;BME280;69983;42.370;-71.210;2023-09-12T03:54:22;101390.91;;;24.34;24.09
80629;BME280;69983;42.370;-71.210;2023-09-12T03:56:18;101387.42;;;24.50;23.85
80629;BME280;69983;42.370;-71.210;2023-09-12T03:58:18;101386.51;;;24.83;23.71
80629;BME280;69983;42.370;-71.210;2023-09-12T04:00:19;101382.71;;;24.77;23.72
80629;BME280;69983;42.370;-71.210;2023-09-12T04:02:19;101389.19;;;24.68;23.81
80629;BME280;69983;42.370;-71.210;2023-09-12T04:04:20;101387.83;;;24.25;23.91
80629;BME280;69983;42.370;-71.210;2023-09-12T04:06:21;101388.43;;;24.62;23.71
80629;BME280;69983;42.370;-71.210;2023-09-12T04:08:21;101389.45;;;23.98;23.94
80629;BME280;69983;42.370;-71.210;2023-09-12T04:10:22;101386.09;;;23.58;24.31
80629;BME280;69983;42.370;-71.210;2023-09-12T04:12:22;101391.10;;;24.16;23.75
80629;BME280;69983;42.370;-71.210;2023-09-12T04:14:23;101393.14;;;24.75;23.60
80629;BME280;69983;42.370;-71.210;2023-09-12T04:16:23;101395.40;;;25.06;23.48
80629;BME280;69983;42.370;-71.210;2023-09-12T04:18:23;101394.56;;;24.94;23.54
80629;BME280;69983;42.370;-71.210;2023-09-12T04:20:24;101393.91;;;25.02;23.36
80629;BME280;69983;42.370;-71.210;2023-09-12T04:22:24;101395.36;;;24.49;23.56
80629;BME280;69983;42.370;-71.210;2023-09-12T04:24:24;101394.89;;;24.26;23.84
80629;BME280;69983;42.370;-71.210;2023-09-12T04:26:24;101395.54;;;24.55;23.52
80629;BME280;69983;42.370;-71.210;2023-09-12T04:28:25;101392.57;;;24.48;23.73
80629;BME280;69983;42.370;-71.210;2023-09-12T04:30:25;101393.94;;;24.41;23.47
80629;BME280;69983;42.370;-71.210;2023-09-12T04:32:30;101394.46;;;24.94;23.40
80629;BME280;69983;42.370;-71.210;2023-09-12T04:34:25;101395.93;;;24.84;23.41
80629;BME280;69983;42.370;-71.210;2023-09-12T04:36:26;101392.75;;;25.22;23.41
80629;BME280;69983;42.370;-71.210;2023-09-12T04:38:26;101394.05;;;24.36;23.72
80629;BME280;69983;42.370;-71.210;2023-09-12T04:40:26;101391.11;;;24.25;23.91
80629;BME280;69983;42.370;-71.210;2023-09-12T04:42:26;101390.20;;;23.95;23.77
80629;BME280;69983;42.370;-71.210;2023-09-12T04:44:26;101384.75;;;23.85;23.82
80629;BME280;69983;42.370;-71.210;2023-09-12T04:46:28;101385.21;;;23.83;24.14
80629;BME280;69983;42.370;-71.210;2023-09-12T04:48:27;101389.94;;;24.43;23.47
80629;BME280;69983;42.370;-71.210;2023-09-12T04:50:27;101388.69;;;24.51;23.42
80629;BME280;69983;42.370;-71.210;2023-09-12T04:52:27;101390.15;;;24.93;23.32
80629;BME280;69983;42.370;-71.210;2023-09-12T04:54:27;101385.00;;;25.19;23.25
80629;BME280;69983;42.370;-71.210;2023-09-12T04:56:28;101384.23;;;25.22;23.32
80629;BME280;69983;42.370;-71.210;2023-09-12T04:58:28;101383.09;;;24.90;23.54
80629;BME280;69983;42.370;-71.210;2023-09-12T05:00:28;101385.72;;;24.21;23.67
80629;BME280;69983;42.370;-71.210;2023-09-12T05:02:28;101385.37;;;24.57;23.28
80629;BME280;69983;42.370;-71.210;2023-09-12T05:04:28;101382.14;;;23.61;23.81
80629;BME280;69983;42.370;-71.210;2023-09-12T05:06:29;101379.16;;;23.97;23.85
80629;BME280;69983;42.370;-71.210;2023-09-12T05:08:29;101380.08;;;24.56;23.34
80629;BME280;69983;42.370;-71.210;2023-09-12T05:10:30;101376.65;;;24.89;23.38
80629;BME280;69983;42.370;-71.210;2023-09-12T05:12:30;101373.23;;;24.81;23.40
80629;BME280;69983;42.370;-71.210;2023-09-12T05:14:30;101371.67;;;25.06;23.33
80629;BME280;69983;42.370;-71.210;2023-09-12T05:16:31;101370.32;;;24.88;23.33
80629;BME280;69983;42.370;-71.210;2023-09-12T05:18:31;101371.83;;;24.41;23.34
80629;BME280;69983;42.370;-71.210;2023-09-12T05:20:31;101368.14;;;23.38;23.97
80629;BME280;69983;42.370;-71.210;2023-09-12T05:22:31;101370.14;;;23.66;23.55
80629;BME280;69983;42.370;-71.210;2023-09-12T05:24:32;101366.39;;;24.28;23.56
80629;BME280;69983;42.370;-71.210;2023-09-12T05:26:32;101362.95;;;24.65;23.34
80629;BME280;69983;42.370;-71.210;2023-09-12T05:28:33;101360.87;;;24.65;23.27
80629;BME280;69983;42.370;-71.210;2023-09-12T05:30:33;101359.74;;;24.80;23.36
80629;BME280;69983;42.370;-71.210;2023-09-12T05:32:33;101358.86;;;24.90;23.37
80629;BME280;69983;42.370;-71.210;2023-09-12T05:34:33;101356.69;;;24.88;23.58
80629;BME280;69983;42.370;-71.210;2023-09-12T05:36:34;101350.78;;;24.98;23.20
80629;BME280;69983;42.370;-71.210;2023-09-12T05:38:34;101349.60;;;23.57;24.03
80629;BME280;69983;42.370;-71.210;2023-09-12T05:40:35;101353.66;;;24.16;23.42
80629;BME280;69983;42.370;-71.210;2023-09-12T05:42:35;101353.94;;;24.16;23.48
80629;BME280;69983;42.370;-71.210;2023-09-12T05:44:36;101346.80;;;24.54;23.44
80629;BME280;69983;42.370;-71.210;2023-09-12T05:46:36;101350.91;;;24.80;23.27
80629;BME280;69983;42.370;-71.210;2023-09-12T05:48:37;101348.42;;;24.64;23.31
80629;BME280;69983;42.370;-71.210;2023-09-12T05:50:38;101350.17;;;24.73;23.36
80629;BME280;69983;42.370;-71.210;2023-09-12T05:52:37;101353.18;;;24.86;23.41
80629;BME280;69983;42.370;-71.210;2023-09-12T05:54:37;101354.38;;;25.05;23.49
80629;BME280;69983;42.370;-71.210;2023-09-12T05:56:37;101354.08;;;25.22;23.25
80629;BME280;69983;42.370;-71.210;2023-09-12T05:58:38;101360.37;;;24.00;23.66
80629;BME280;69983;42.370;-71.210;2023-09-12T06:00:40;101362.95;;;24.19;23.59
80629;BME280;69983;42.370;-71.210;2023-09-12T06:02:39;101362.68;;;23.52;23.72
80629;BME280;69983;42.370;-71.210;2023-09-12T06:04:39;101363.71;;;23.97;23.72
80629;BME280;69983;42.370;-71.210;2023-09-12T06:06:39;101365.32;;;24.35;23.49
80629;BME280;69983;42.370;-71.210;2023-09-12T06:08:40;101363.46;;;24.59;23.39
80629;BME280;69983;42.370;-71.210;2023-09-12T06:10:40;101361.10;;;24.49;23.43
80629;BME280;69983;42.370;-71.210;2023-09-12T06:12:41;101361.70;;;24.87;23.45
80629;BME280;69983;42.370;-71.210;2023-09-12T06:14:41;101359.27;;;24.50;23.41
80629;BME280;69983;42.370;-71.210;2023-09-12T06:16:41;101356.30;;;25.00;23.53
80629;BME280;69983;42.370;-71.210;2023-09-12T06:18:41;101354.94;;;24.95;23.59
80629;BME280;69983;42.370;-71.210;2023-09-12T06:20:41;101353.84;;;23.77;23.78
80629;BME280;69983;42.370;-71.210;2023-09-12T06:22:43;101351.39;;;23.86;23.86
80629;BME280;69983;42.370;-71.210;2023-09-12T06:24:43;101348.61;;;22.82;24.22
80629;BME280;69983;42.370;-71.210;2023-09-12T06:26:43;101346.00;;;23.28;24.27
80629;BME280;69983;42.370;-71.210;2023-09-12T06:28:43;101347.69;;;23.94;23.51
80629;BME280;69983;42.370;-71.210;2023-09-12T06:30:44;101344.28;;;24.07;23.44
80629;BME280;69983;42.370;-71.210;2023-09-12T06:32:45;101344.50;;;24.33;23.30
80629;BME280;69983;42.370;-71.210;2023-09-12T06:34:45;101344.18;;;24.38;23.40
80629;BME280;69983;42.370;-71.210;2023-09-12T06:36:46;101346.23;;;24.23;23.56
80629;BME280;69983;42.370;-71.210;2023-09-12T06:38:46;101337.02;;;24.57;23.41
80629;BME280;69983;42.370;-71.210;2023-09-12T06:40:52;101332.84;;;24.53;23.47
80629;BME280;69983;42.370;-71.210;2023-09-12T06:42:48;101330.47;;;24.84;23.24
80629;BME280;69983;42.370;-71.210;2023-09-12T06:44:48;101335.71;;;24.39;23.23
80629;BME280;69983;42.370;-71.210;2023-09-12T06:46:48;101335.15;;;24.04;23.26
80629;BME280;69983;42.370;-71.210;2023-09-12T06:48:48;101333.23;;;23.62;23.45
80629;BME280;69983;42.370;-71.210;2023-09-12T06:50:49;101331.70;;;23.23;23.90
80629;BME280;69983;42.370;-71.210;2023-09-12T06:52:49;101334.47;;;23.87;23.45
80629;BME280;69983;42.370;-71.210;2023-09-12T06:54:49;101331.12;;;23.82;23.54
80629;BME280;69983;42.370;-71.210;2023-09-12T06:56:49;101330.18;;;23.78;23.46
80629;BME280;69983;42.370;-71.210;2023-09-12T06:58:49;101332.40;;;23.82;23.52
80629;BME280;69983;42.370;-71.210;2023-09-12T07:00:49;101332.26;;;24.13;23.52
80629;BME280;69983;42.370;-71.210;2023-09-12T07:02:49;101333.51;;;23.84;23.67
80629;BME280;69983;42.370;-71.210;2023-09-12T07:04:49;101333.71;;;23.92;23.68
80629;BME280;69983;42.370;-71.210;2023-09-12T07:06:50;101337.22;;;23.94;23.74
80629;BME280;69983;42.370;-71.210;2023-09-12T07:08:50;101338.24;;;23.95;23.80
80629;BME280;69983;42.370;-71.210;2023-09-12T07:10:50;101339.61;;;23.88;23.73
80629;BME280;69983;42.370;-71.210;2023-09-12T07:12:51;101341.38;;;24.16;23.77
80629;BME280;69983;42.370;-71.210;2023-09-12T07:14:50;101344.02;;;24.48;23.81
80629;BME280;69983;42.370;-71.210;2023-09-12T07:16:50;101347.39;;;24.19;23.44
80629;BME280;69983;42.370;-71.210;2023-09-12T07:18:50;101347.05;;;23.56;23.70
80629;BME280;69983;42.370;-71.210;2023-09-12T07:20:58;101345.91;;;23.24;23.73
80629;BME280;69983;42.370;-71.210;2023-09-12T07:22:50;101346.10;;;22.85;24.04
80629;BME280;69983;42.370;-71.210;2023-09-12T07:24:51;101344.23;;;23.34;23.94
80629;BME280;69983;42.370;-71.210;2023-09-12T07:26:51;101347.61;;;23.87;23.57
80629;BME280;69983;42.370;-71.210;2023-09-12T07:28:51;101345.89;;;23.26;23.97
80629;BME280;69983;42.370;-71.210;2023-09-12T07:30:51;101346.00;;;23.99;23.65
80629;BME280;69983;42.370;-71.210;2023-09-12T07:32:51;101344.13;;;23.91;23.81
80629;BME280;69983;42.370;-71.210;2023-09-12T07:34:51;101344.24;;;23.79;24.02
80629;BME280;69983;42.370;-71.210;2023-09-12T07:36:51;101343.60;;;23.49;24.16
80629;BME280;69983;42.370;-71.210;2023-09-12T07:38:51;101337.70;;;24.12;24.22
80629;BME280;69983;42.370;-71.210;2023-09-12T07:40:51;101337.83;;;24.12;23.70
80629;BME280;69983;42.370;-71.210;2023-09-12T07:42:52;101336.13;;;23.75;23.92
80629;BME280;69983;42.370;-71.210;2023-09-12T07:44:52;101335.71;;;23.12;24.05
80629;BME280;69983;42.370;-71.210;2023-09-12T07:46:52;101336.90;;;23.03;24.26
80629;BME280;69983;42.370;-71.210;2023-09-12T07:48:52;101340.97;;;23.73;23.99
80629;BME280;69983;42.370;-71.210;2023-09-12T07:50:52;101340.32;;;23.51;24.09
80629;BME280;69983;42.370;-71.210;2023-09-12T07:52:53;101342.78;;;23.90;24.01
80629;BME280;69983;42.370;-71.210;2023-09-12T07:54:52;101346.77;;;23.85;23.97
80629;BME280;69983;42.370;-71.210;2023-09-12T07:56:53;101349.32;;;24.09;24.06
80629;BME280;69983;42.370;-71.210;2023-09-12T07:58:53;101350.09;;;23.87;24.14
80629;BME280;69983;42.370;-71.210;2023-09-12T08:00:53;101350.40;;;24.02;24.02
80629;BME280;69983;42.370;-71.210;2023-09-12T08:02:53;101349.76;;;23.68;23.97
80629;BME280;69983;42.370;-71.210;2023-09-12T08:04:53;101347.32;;;23.38;23.97
80629;BME280;69983;42.370;-71.210;2023-09-12T08:06:53;101347.78;;;23.25;24.03
80629;BME280;69983;42.370;-71.210;2023-09-12T08:08:53;101349.18;;;23.22;24.32
80629;BME280;69983;42.370;-71.210;2023-09-12T08:10:53;101347.43;;;23.56;24.10
80629;BME280;69983;42.370;-71.210;2023-09-12T08:12:55;101351.26;;;23.51;24.08
80629;BME280;69983;42.370;-71.210;2023-09-12T08:14:54;101351.14;;;23.64;24.04
80629;BME280;69983;42.370;-71.210;2023-09-12T08:16:53;101351.08;;;23.60;24.35
80629;BME280;69983;42.370;-71.210;2023-09-12T08:18:53;101353.19;;;23.91;24.00
80629;BME280;69983;42.370;-71.210;2023-09-12T08:20:54;101352.25;;;23.95;24.20
80629;BME280;69983;42.370;-71.210;2023-09-12T08:22:54;101349.87;;;23.59;24.39
80629;BME280;69983;42.370;-71.210;2023-09-12T08:24:54;101349.10;;;23.99;24.07
80629;BME280;69983;42.370;-71.210;2023-09-12T08:26:54;101342.67;;;23.23;24.32
80629;BME280;69983;42.370;-71.210;2023-09-12T08:28:54;101343.41;;;23.41;23.93
80629;BME280;69983;42.370;-71.210;2023-09-12T08:30:54;101339.96;;;23.05;24.26
80629;BME280;69983;42.370;-71.210;2023-09-12T08:32:54;101340.11;;;22.88;24.40
80629;BME280;69983;42.370;-71.210;2023-09-12T08:34:55;101340.49;;;23.40;24.08
80629;BME280;69983;42.370;-71.210;2023-09-12T08:36:54;101337.65;;;23.30;24.23
80629;BME280;69983;42.370;-71.210;2023-09-12T08:38:54;101337.31;;;23.41;24.24
80629;BME280;69983;42.370;-71.210;2023-09-12T08:40:55;101336.49;;;23.64;24.13
80629;BME280;69983;42.370;-71.210;2023-09-12T08:42:55;101337.47;;;23.40;24.19
80629;BME280;69983;42.370;-71.210;2023-09-12T08:44:55;101336.91;;;23.70;24.25
80629;BME280;69983;42.370;-71.210;2023-09-12T08:46:55;101334.49;;;23.81;24.22
80629;BME280;69983;42.370;-71.210;2023-09-12T08:48:55;101334.04;;;23.94;24.38
80629;BME280;69983;42.370;-71.210;2023-09-12T08:50:55;101333.43;;;23.94;24.12
80629;BME280;69983;42.370;-71.210;2023-09-12T08:52:55;101331.56;;;23.25;24.41
80629;BME280;69983;42.370;-71.210;2023-09-12T08:54:57;101331.51;;;23.33;24.10
80629;BME280;69983;42.370;-71.210;2023-09-12T08:56:56;101329.62;;;23.64;24.07
80629;BME280;69983;42.370;-71.210;2023-09-12T08:58:56;101330.90;;;22.99;24.22
80629;BME280;69983;42.370;-71.210;2023-09-12T09:00:56;101331.60;;;23.04;24.23
80629;BME280;69983;42.370;-71.210;2023-09-12T09:02:56;101332.00;;;23.73;23.95
80629;BME280;69983;42.370;-71.210;2023-09-12T09:04:56;101329.33;;;23.63;23.94
80629;BME280;69983;42.370;-71.210;2023-09-12T09:06:58;101326.09;;;23.52;24.11
80629;BME280;69983;42.370;-71.210;2023-09-12T09:08:56;101329.31;;;23.50;24.18
80629;BME280;69983;42.370;-71.210;2023-09-12T09:10:57;101327.67;;;23.42;24.51
80629;BME280;69983;42.370;-71.210;2023-09-12T09:12:56;101333.65;;;23.31;24.49
80629;BME280;69983;42.370;-71.210;2023-09-12T09:14:56;101335.94;;;23.54;24.36
80629;BME280;69983;42.370;-71.210;2023-09-12T09:16:56;101333.65;;;23.49;24.48
80629;BME280;69983;42.370;-71.210;2023-09-12T09:18:58;101334.07;;;23.59;24.45
80629;BME280;69983;42.370;-71.210;2023-09-12T09:20:57;101333.46;;;24.06;24.35
80629;BME280;69983;42.370;-71.210;2023-09-12T09:23:01;101337.80;;;23.69;24.52
80629;BME280;69983;42.370;-71.210;2023-09-12T09:25:10;101340.32;;;23.83;24.45
80629;BME280;69983;42.370;-71.210;2023-09-12T09:26:57;101340.98;;;23.50;24.79
80629;BME280;69983;42.370;-71.210;2023-09-12T09:29:06;101344.09;;;23.70;24.69
80629;BME280;69983;42.370;-71.210;2023-09-12T09:30:57;101346.54;;;24.02;24.65
80629;BME280;69983;42.370;-71.210;2023-09-12T09:32:57;101347.27;;;23.94;24.28
80629;BME280;69983;42.370;-71.210;2023-09-12T09:34:57;101345.58;;;23.64;24.19
80629;BME280;69983;42.370;-71.210;2023-09-12T09:36:58;101344.17;;;23.58;24.22
80629;BME280;69983;42.370;-71.210;2023-09-12T09:38:58;101345.55;;;23.57;24.17
80629;BME280;69983;42.370;-71.210;2023-09-12T09:40:58;101349.82;;;23.57;24.32
80629;BME280;69983;42.370;-71.210;2023-09-12T09:43:00;101346.94;;;23.21;24.48
80629;BME280;69983;42.370;-71.210;2023-09-12T09:44:59;101344.84;;;23.49;24.35
80629;BME280;69983;42.370;-71.210;2023-09-12T09:47:00;101344.81;;;23.80;24.35
80629;BME280;69983;42.370;-71.210;2023-09-12T09:48:58;101346.00;;;23.19;24.72
80629;BME280;69983;42.370;-71.210;2023-09-12T09:51:01;101355.68;;;23.87;24.43
80629;BME280;69983;42.370;-71.210;2023-09-12T09:52:58;101359.87;;;23.39;24.70
80629;BME280;69983;42.370;-71.210;2023-09-12T09:54:59;101362.32;;;23.60;24.58
80629;BME280;69983;42.370;-71.210;2023-09-12T09:56:59;101359.72;;;23.50;24.71
80629;BME280;69983;42.370;-71.210;2023-09-12T09:58:59;101360.03;;;23.92;24.66
80629;BME280;69983;42.370;-71.210;2023-09-12T10:01:00;101360.98;;;23.80;24.60
80629;BME280;69983;42.370;-71.210;2023-09-12T10:03:00;101360.89;;;23.42;24.95
80629;BME280;69983;42.370;-71.210;2023-09-12T10:05:00;101366.30;;;23.68;24.83
80629;BME280;69983;42.370;-71.210;2023-09-12T10:07:00;101367.94;;;23.99;24.59
80629;BME280;69983;42.370;-71.210;2023-09-12T10:09:00;101369.44;;;23.71;24.88
80629;BME280;69983;42.370;-71.210;2023-09-12T10:10:59;101369.84;;;24.79;24.31
80629;BME280;69983;42.370;-71.210;2023-09-12T10:13:03;101366.72;;;23.42;24.50